Meteo Giornale » Osservazioni meteo Stati Uniti (USA) » Ocala
ore: 13:51 - Osservazioni Meteo Ocala
Lat. 29° 10' N Lon. 82° 13' W Alt. 27 metri s.l.m.
32 °C
Poco Nuvoloso
Temp. 24 Ore
24 °C
32 °C
Nord
5.5 Km/h
Dew point 22 °C
Umidità 55 %
Visibilità 10 Km
Il sole sorge alle ore 07:06
Il sole tramonta alle ore 19:52
| Data e Ora | Cielo e Fenomeni | T °C | DP °C | Um. % | Pres. hPa | Vis. km | Vento km/h | |
|---|---|---|---|---|---|---|---|---|
| Oggi h: 13:51 | Poco Nuvoloso | 32 | 22 | 55 | 1018 | 10 | N 5.5 | |
| Oggi h: 12:51 | Nuvoloso | 32 | 23 | 59 | 1018 | 10 | N 7.4 | |
| Oggi h: 11:51 | Nuvoloso | 31 | 23 | 62 | 1019 | 10 | N 11.1 | |
| Oggi h: 10:51 | Nuvoloso | 29 | 24 | 74 | 1019 | 10 | N/NE 7.4 | |
| Oggi h: 09:59 | Nuvoloso | 27 | 25 | 88 | 1019 | 10 | N/NO 7.4 | |
| Oggi h: 09:51 | Molto Nuvoloso | 26 | 25 | 94 | 1019 | 10 | N 0 | |
| Oggi h: 09:03 | Nebbia | 24 | 24 | 100 | 1018 | 2 | N 5.5 | |
| Oggi h: 08:51 | Nebbia | 24 | 24 | 100 | 1018 | 2 | N 9.3 | |
| Oggi h: 08:42 | Nebbia | 24 | 24 | 100 | 1018 | 2 | N 7.4 | |
| Oggi h: 08:35 | Foschia | 24 | 24 | 100 | 1018 | 2 | N 5.5 | |
| Oggi h: 08:28 | Nebbia | 24 | 24 | 100 | 1018 | 2 | N 7.4 | |
| Oggi h: 07:51 | Nebbia | 24 | 24 | 100 | 1018 | 2 | N 0 | |
| Oggi h: 07:37 | Nebbia | 24 | 24 | 100 | 1018 | 2 | N 5.5 | |
| Oggi h: 07:06 | Nebbia | 24 | 24 | 100 | 1017 | 2 | N 0 | |
| Oggi h: 06:51 | Nebbia | 24 | 24 | 100 | 1017 | 2 | N 0 | |
| Oggi h: 05:51 | Foschia | 24 | 24 | 100 | 1017 | 5 | N 0 | |
| Oggi h: 05:44 | Foschia | 24 | 24 | 100 | 1017 | 5 | N 0 | |
| Oggi h: 05:37 | Foschia | 24 | 24 | 100 | 1017 | 10 | N 5.5 | |
| Oggi h: 04:51 | Sereno | 24 | 24 | 100 | 1017 | 10 | N 0 | |
| Oggi h: 03:51 | Sereno | 24 | 24 | 100 | 1017 | 10 | N 0 | |
| Oggi h: 02:51 | Sereno | 25 | 24 | 94 | 1017 | 10 | N 5.5 | |
| Oggi h: 01:51 | Sereno | 24 | 24 | 100 | 1018 | 10 | N 0 | |
| Oggi h: 00:51 | Sereno | 25 | 24 | 94 | 1018 | 10 | N 0 | |
| Oggi h: 00:19 | Nuvoloso | 25 | 24 | 94 | 1018 | 10 | N 5.5 | |
| Ieri h: 23:51 | Molto Nuvoloso | 25 | 24 | 94 | 1018 | 10 | N/NO 7.4 | |
| Ieri h: 22:51 | Coperto | 26 | 24 | 88 | 1018 | 10 | N 5.5 | |
| Ieri h: 22:42 | Molto Nuvoloso | 26 | 24 | 88 | 1018 | 10 | N 0 | |
| Ieri h: 22:03 | Nuvoloso | 26 | 23 | 83 | 1018 | 10 | N 0 | |
| Ieri h: 21:51 | Molto Nuvoloso | 26 | 23 | 83 | 1018 | 10 | N 5.5 | |
| Ieri h: 21:46 | Molto Nuvoloso | 26 | 24 | 88 | 1018 | 10 | N 0 | |
| Ieri h: 21:07 | Nuvoloso | 26 | 24 | 88 | 1018 | 10 | N 5.5 | |
| Ieri h: 20:51 | Molto Nuvoloso | 26 | 24 | 88 | 1018 | 10 | SO 7.4 | |
| Ieri h: 20:44 | Molto Nuvoloso | 26 | 23 | 83 | 1018 | 10 | N 5.5 | |
| Ieri h: 20:11 | Poco Nuvoloso | 26 | 23 | 83 | 1018 | 10 | N 5.5 | |
| Ieri h: 19:51 | Poco Nuvoloso | 26 | 24 | 88 | 1018 | 10 | N 0 | |
| Ieri h: 18:51 | Coperto | 27 | 23 | 78 | 1017 | 10 | N 5.5 | |
| Ieri h: 17:51 | Nuvoloso | 28 | 23 | 74 | 1017 | 10 | N 7.4 | |
| Ieri h: 17:03 | Nuvoloso | 29 | 23 | 70 | 1016 | 10 | E 24 | |
| Ieri h: 16:51 | Temporale nelle vicinanze | 31 | 23 | 62 | 1016 | 10 | E 29.6 | |
| Ieri h: 16:38 | Temporale nelle vicinanze | 32 | 22 | 55 | 1016 | 10 | E 18.5 | |
| Ieri h: 15:51 | Sereno | 32 | 24 | 62 | 1017 | 10 | E/NE 18.5 | |
| Ieri h: 14:51 | Molto Nuvoloso | 31 | 23 | 62 | 1017 | 10 | E/NE 14.8 | |



